Terminal Aerodrome Forecast
Issued by NWS Lake Charles, LA

Home | Current Version | Previous Version | Text Only | Print | Product List | Glossary On
Versions: 1 2 3 4 5 6 7 8 9 10 11 12 13 14 15 16 17 18 19 20 21 22 23 24 25 26 27 28
460
FTUS44 KLCH 210846 AAC
TAFLCH
TAF AMD
KLCH 210846Z 2109/2206 VRB03KT 5SM BR SCT025 BKN035
      TEMPO 2111/2115 1SM BR BKN008 OVC025
     FM211500 VRB03KT 5SM BR BKN025
     FM211800 29008KT P6SM SCT250
     FM220100 33004KT P6SM SKC=

USA.gov is the U.S. government's official web portal to all federal, state and local government web resources and services.